createdAt,value
2023-04-20T00:02:15.463Z,4.90
2023-04-20T00:07:37.634Z,5.00
2023-04-20T00:12:59.071Z,5.00
2023-04-20T00:18:20.672Z,5.00
2023-04-20T00:23:42.833Z,5.00
2023-04-20T00:29:04.159Z,4.90
2023-04-20T00:34:25.610Z,4.90
2023-04-20T00:39:47.633Z,4.90
2023-04-20T00:45:09.717Z,4.90
2023-04-20T00:50:32.235Z,4.90
2023-04-20T00:55:53.602Z,4.90
2023-04-20T01:01:17.880Z,5.00
2023-04-20T01:06:41.120Z,4.80
2023-04-20T01:12:02.887Z,4.90
2023-04-20T01:17:24.358Z,4.90
2023-04-20T01:22:47.695Z,4.90
2023-04-20T01:28:09.532Z,4.90
2023-04-20T01:33:31.489Z,4.90
2023-04-20T01:38:53.023Z,4.80
2023-04-20T01:44:15.951Z,4.90
2023-04-20T01:49:37.433Z,4.80
2023-04-20T01:54:58.633Z,4.80
2023-04-20T02:00:20.486Z,4.70
2023-04-20T02:05:41.945Z,4.70
2023-04-20T02:11:03.691Z,4.70
2023-04-20T02:16:25.067Z,4.70
2023-04-20T02:21:46.459Z,4.70
2023-04-20T02:27:08.108Z,4.60
2023-04-20T02:32:29.176Z,4.50
2023-04-20T02:37:51.413Z,4.40
2023-04-20T02:43:16.779Z,4.40
2023-04-20T02:48:38.704Z,4.30
2023-04-20T02:54:00.014Z,4.30
2023-04-20T02:59:23.150Z,4.10
2023-04-20T03:05:08.389Z,4.00
2023-04-20T03:10:37.283Z,3.90
2023-04-20T03:16:12.935Z,3.70
2023-04-20T03:21:38.887Z,3.60
2023-04-20T03:27:00.204Z,3.60
2023-04-20T03:32:32.665Z,3.40
2023-04-20T03:37:56.575Z,3.30
2023-04-20T03:43:18.265Z,3.10
2023-04-20T03:48:39.790Z,3.00
2023-04-20T03:54:01.372Z,2.90
2023-04-20T03:59:23.958Z,2.80
2023-04-20T04:04:45.655Z,2.60
2023-04-20T04:10:07.761Z,2.40
2023-04-20T04:15:29.373Z,2.40
2023-04-20T04:20:58.367Z,2.20
2023-04-20T04:26:24.684Z,2.10
2023-04-20T04:31:47.586Z,2.00
2023-04-20T04:37:14.566Z,1.90
2023-04-20T04:42:42.666Z,1.80
2023-04-20T04:48:08.612Z,1.70
2023-04-20T04:53:30.429Z,1.70
2023-04-20T04:58:51.872Z,1.70
2023-04-20T05:04:13.639Z,1.70
2023-04-20T05:09:35.326Z,1.70
2023-04-20T05:14:56.527Z,1.70
2023-04-20T05:20:17.910Z,1.80
2023-04-20T05:25:39.370Z,1.90
2023-04-20T05:31:01.610Z,2.00
2023-04-20T05:36:22.719Z,2.10
2023-04-20T05:41:44.056Z,2.40
2023-04-20T05:47:08.901Z,2.70
2023-04-20T05:52:30.415Z,3.00
2023-04-20T05:57:52.965Z,3.20
2023-04-20T06:03:14.791Z,3.50
2023-04-20T06:08:36.598Z,3.90
2023-04-20T06:14:01.078Z,4.20
2023-04-20T06:19:22.617Z,4.40
2023-04-20T06:24:44.410Z,4.50
2023-04-20T06:30:06.599Z,4.90
2023-04-20T06:35:28.066Z,5.10
2023-04-20T06:40:49.427Z,5.30
2023-04-20T06:46:11.029Z,5.50
2023-04-20T06:51:33.319Z,5.60
2023-04-20T06:56:54.894Z,5.80
2023-04-20T07:02:16.276Z,5.90
2023-04-20T07:07:38.102Z,5.90
2023-04-20T07:12:59.320Z,5.90
2023-04-20T07:18:21.025Z,6.00
2023-04-20T07:23:44.795Z,6.10
2023-04-20T07:29:06.329Z,6.30
2023-04-20T07:34:27.623Z,6.40
2023-04-20T07:39:49.216Z,6.40
2023-04-20T07:45:12.632Z,6.40
2023-04-20T07:50:33.927Z,6.40
2023-04-20T07:55:55.656Z,6.50
2023-04-20T08:01:17.289Z,6.50
2023-04-20T08:06:38.650Z,6.60
2023-04-20T08:12:00.731Z,6.70
2023-04-20T08:17:22.280Z,6.90
2023-04-20T08:22:43.531Z,7.00
2023-04-20T08:28:08.662Z,7.20
2023-04-20T08:33:30.334Z,7.60
2023-04-20T08:39:06.141Z,8.10
2023-04-20T08:44:27.742Z,8.40
2023-04-20T08:49:52.648Z,8.60
2023-04-20T08:55:20.623Z,8.70
2023-04-20T09:00:49.688Z,8.60
2023-04-20T09:06:18.711Z,8.50
2023-04-20T09:11:41.055Z,8.20
2023-04-20T09:17:05.197Z,8.40
2023-04-20T09:22:34.674Z,8.30
2023-04-20T09:27:57.993Z,8.30
2023-04-20T09:33:19.699Z,8.30
2023-04-20T09:38:41.221Z,7.90
2023-04-20T09:44:02.843Z,7.90
2023-04-20T09:49:25.561Z,7.90
2023-04-20T09:54:47.295Z,7.90
2023-04-20T10:00:12.821Z,8.00
2023-04-20T10:05:39.812Z,8.10
2023-04-20T10:11:01.068Z,8.20
2023-04-20T10:16:23.265Z,8.30
2023-04-20T10:21:51.535Z,8.30
2023-04-20T10:27:22.961Z,8.30
2023-04-20T10:32:44.306Z,8.30
2023-04-20T10:38:07.245Z,8.10
2023-04-20T10:43:28.879Z,8.00
2023-04-20T10:48:55.198Z,7.80
2023-04-20T10:54:18.281Z,7.70
2023-04-20T10:59:42.148Z,7.80
2023-04-20T11:05:12.651Z,7.80
2023-04-20T11:10:42.289Z,7.80
2023-04-20T11:16:14.512Z,7.90
2023-04-20T11:21:41.235Z,7.80
2023-04-20T11:27:04.885Z,8.00
2023-04-20T11:32:27.545Z,7.60
2023-04-20T11:37:53.843Z,7.50
2023-04-20T11:43:15.247Z,7.50
2023-04-20T11:48:36.843Z,7.50
2023-04-20T11:53:58.415Z,7.80
2023-04-20T11:59:21.153Z,7.90
2023-04-20T12:05:03.283Z,7.90
2023-04-20T12:10:28.031Z,8.00
2023-04-20T12:15:58.319Z,8.20
2023-04-20T12:21:37.681Z,8.30
2023-04-20T12:27:23.337Z,8.50
2023-04-20T12:33:07.404Z,8.70
2023-04-20T12:38:50.294Z,8.60
2023-04-20T12:44:17.625Z,8.60
2023-04-20T12:49:40.862Z,8.70
2023-04-20T12:55:02.494Z,8.50
2023-04-20T13:00:24.168Z,8.30
2023-04-20T13:06:06.324Z,8.20
2023-04-20T13:11:33.458Z,8.30
2023-04-20T13:17:08.476Z,8.20
2023-04-20T13:22:57.517Z,8.20
2023-04-20T13:28:23.768Z,8.00
2023-04-20T13:34:06.696Z,7.80
2023-04-20T13:39:30.636Z,7.80
2023-04-20T13:44:52.473Z,7.90
2023-04-20T13:50:14.120Z,8.00
2023-04-20T13:55:35.771Z,7.60
2023-04-20T14:00:57.303Z,7.80
2023-04-20T14:06:37.116Z,7.70
2023-04-20T14:12:23.903Z,7.60
2023-04-20T14:18:03.070Z,7.70
2023-04-20T14:23:32.288Z,7.50
2023-04-20T14:29:02.780Z,7.60
2023-04-20T14:34:29.725Z,7.70
2023-04-20T14:39:51.501Z,7.70
2023-04-20T14:45:14.018Z,7.70
2023-04-20T14:50:35.804Z,7.70
2023-04-20T14:56:17.374Z,7.80
2023-04-20T15:07:42.990Z,8.00
2023-04-20T15:13:21.044Z,8.10
2023-04-20T15:19:03.326Z,8.20
2023-04-20T15:24:31.315Z,8.30
2023-04-20T15:29:54.218Z,8.30
2023-04-20T15:35:15.578Z,8.40
2023-04-20T15:40:38.850Z,8.30
2023-04-20T15:46:31.602Z,8.40
2023-04-20T15:52:13.878Z,8.40
2023-04-20T15:57:46.645Z,8.50
2023-04-20T16:03:35.880Z,8.60
2023-04-20T16:09:13.327Z,8.60
2023-04-20T16:14:36.169Z,8.60
2023-04-20T16:19:57.473Z,8.70
2023-04-20T16:25:23.304Z,8.60
2023-04-20T16:30:45.223Z,8.70
2023-04-20T16:36:26.196Z,8.70
2023-04-20T16:41:48.111Z,8.70
2023-04-20T16:47:24.553Z,8.70
2023-04-20T16:52:57.071Z,8.60
2023-04-20T16:58:31.056Z,8.50
2023-04-20T17:03:59.808Z,8.50
2023-04-20T17:09:22.590Z,8.50
2023-04-20T17:14:43.944Z,8.50
2023-04-20T17:20:07.355Z,8.40
2023-04-20T17:25:31.040Z,8.40
2023-04-20T17:31:11.967Z,8.20
2023-04-20T17:37:06.662Z,8.30
2023-04-20T17:42:57.461Z,8.30
2023-04-20T17:48:31.054Z,8.20
2023-04-20T17:54:02.273Z,8.30
2023-04-20T17:59:31.639Z,8.30
2023-04-20T18:05:04.035Z,8.20
2023-04-20T18:10:29.904Z,8.10
2023-04-20T18:16:07.934Z,8.20
2023-04-20T18:21:55.131Z,8.20
2023-04-20T18:27:30.251Z,8.20
2023-04-20T18:33:11.307Z,8.10
2023-04-20T18:38:38.186Z,8.10
2023-04-20T18:44:07.991Z,8.10
2023-04-20T18:49:36.242Z,8.10
2023-04-20T18:54:58.020Z,8.00
2023-04-20T19:00:19.844Z,7.90
2023-04-20T19:05:57.690Z,7.90
2023-04-20T19:11:31.507Z,7.80
2023-04-20T19:17:15.331Z,7.80
2023-04-20T19:22:53.449Z,7.80
2023-04-20T19:28:37.833Z,7.70
2023-04-20T19:34:13.176Z,7.70
2023-04-20T19:39:44.929Z,7.60
2023-04-20T19:45:07.093Z,7.50
2023-04-20T19:50:32.494Z,7.40
2023-04-20T20:02:11.832Z,7.20
2023-04-20T20:07:34.208Z,7.10
2023-04-20T20:13:03.676Z,7.00
2023-04-20T20:18:45.078Z,7.00
2023-04-20T20:24:13.630Z,6.90
2023-04-20T20:29:35.900Z,6.90
2023-04-20T20:34:57.516Z,6.80
2023-04-20T20:40:19.404Z,7.00
2023-04-20T20:45:41.632Z,7.10
2023-04-20T20:51:30.547Z,7.20
2023-04-20T20:57:20.265Z,7.40
2023-04-20T21:02:52.368Z,7.40
2023-04-20T21:08:13.703Z,7.50
2023-04-20T21:13:53.796Z,7.40
2023-04-20T21:19:21.516Z,7.40
2023-04-20T21:24:43.180Z,7.30
2023-04-20T21:30:05.515Z,7.30
2023-04-20T21:35:31.331Z,7.30
2023-04-20T21:41:06.003Z,7.20
2023-04-20T21:47:02.831Z,7.20
2023-04-20T21:52:48.497Z,7.20
2023-04-20T21:58:24.735Z,7.10
2023-04-20T22:10:06.958Z,7.00
2023-04-20T22:15:30.405Z,6.90
2023-04-20T22:21:04.994Z,6.90
2023-04-20T22:26:48.751Z,6.80
2023-04-20T22:32:30.660Z,6.80
2023-04-20T22:37:59.777Z,6.80
2023-04-20T22:43:33.297Z,6.80
2023-04-20T22:49:03.374Z,6.70
2023-04-20T22:54:25.729Z,6.70
2023-04-20T22:59:48.937Z,6.60
2023-04-20T23:05:33.666Z,6.50
2023-04-20T23:11:21.814Z,6.50
2023-04-20T23:17:01.008Z,6.30
2023-04-20T23:22:52.388Z,6.20
2023-04-20T23:28:28.145Z,6.10
2023-04-20T23:33:58.081Z,6.00
2023-04-20T23:39:26.298Z,6.00
2023-04-20T23:44:48.127Z,5.90
2023-04-20T23:50:09.952Z,5.80
2023-04-20T23:55:32.045Z,5.70
